This is the latest recevied weather packets stored in our database for station/object KC0AFB. If no packets are shown the sender has not sent any weather packets the latest 10 day(s).
| Time | Temp. | Humidity | Pressure | Rain* | Wind** | Luminosity | Snow |
|---|---|---|---|---|---|---|---|
| 1777570449 | 7.22° C | 52% | 1020.6 hPa | 0 mm | - | 809 W/m² | - |
| 1777570145 | 8.89° C | 52% | 1020.6 hPa | 0 mm | - | 486 W/m² | - |
| 1777569842 | 7.78° C | 54% | 1020.6 hPa | 0 mm | - | 882 W/m² | - |
| 1777569538 | 7.78° C | 51% | 1020.8 hPa | 0 mm | - | 802 W/m² | - |
| 1777569234 | 7.78° C | 52% | 1020.7 hPa | 0 mm | - | 882 W/m² | - |
| 1777568931 | 7.22° C | 52% | 1020.6 hPa | 0 mm | - | 871 W/m² | - |
| 1777568627 | 7.22° C | 54% | 1020.6 hPa | 0 mm | - | 794 W/m² | - |
| 1777568325 | 7.78° C | 52% | 1020.5 hPa | 0 mm | - | 797 W/m² | - |
| 1777568020 | 7.22° C | 50% | 1020.8 hPa | 0 mm | - | 792 W/m² | - |
| 1777567718 | 7.78° C | 53% | 1020.7 hPa | 0 mm | - | 801 W/m² | - |
| 1777567414 | 8.33° C | 50% | 1020.6 hPa | 0 mm | - | 804 W/m² | - |
| 1777567113 | 7.78° C | 52% | 1020.6 hPa | 0 mm | - | 861 W/m² | - |
| 1777566810 | 8.33° C | 52% | 1020.7 hPa | 0 mm | - | 612 W/m² | - |
| 1777566508 | 7.78° C | 53% | 1020.4 hPa | 0 mm | - | 733 W/m² | - |
| 1777566205 | 7.22° C | 51% | 1020.4 hPa | 0 mm | - | 683 W/m² | - |
| 1777565901 | 7.78° C | 50% | 1020.5 hPa | 0 mm | - | 660 W/m² | - |
| 1777565597 | 7.78° C | 51% | 1020.1 hPa | 0 mm | - | 629 W/m² | - |
| 1777565294 | 7.78° C | 52% | 1020.5 hPa | 0 mm | - | 306 W/m² | - |
| 1777564990 | 7.22° C | 57% | 1020.3 hPa | 0 mm | - | 682 W/m² | - |
| 1777564685 | 7.22° C | 58% | 1020.5 hPa | 0 mm | - | 674 W/m² | - |
| 1777564381 | 7.22° C | 56% | 1020.3 hPa | 0 mm | - | 631 W/m² | - |
| 1777564077 | 7.22° C | 57% | 1020.4 hPa | 0 mm | - | 645 W/m² | - |
| 1777563773 | 6.11° C | 58% | 1020.5 hPa | 0 mm | - | 574 W/m² | - |
| 1777563469 | 6.67° C | 59% | 1020.3 hPa | 0 mm | - | 581 W/m² | - |
| 1777563169 | 6.67° C | 59% | 1020.3 hPa | 0 mm | - | 594 W/m² | - |
* Rain latest hour (hover to see other rain measurements)
** Current wind speed in m/s (hover to see current wind gust speed)